Time;durP1;ratioP1;P1;durP2;ratioP2;P2;SDS_P1;SDS_P2;PMS_P1;PMS_P2;Temp;Humidity;BMP_temperature;BMP_pressure;BME280_temperature;BME280_humidity;BME280_pressure;Samples;Min_cycle;Max_cycle;Signal;HPM_P1;HPM_P2
2024/01/25 00:01:10;;;;;;;2.53;0.63;;;7.90;99.90;;;;;;5011709;28;20433;-73
2024/01/25 00:03:35;;;;;;;2.83;0.52;;;7.90;99.90;;;;;;5012028;28;20100;-73
2024/01/25 00:06:02;;;;;;;6.45;1.10;;;7.90;99.90;;;;;;5011452;28;20060;-73
2024/01/25 00:08:27;;;;;;;6.72;1.73;;;7.90;99.90;;;;;;5011522;28;20338;-73
2024/01/25 00:10:53;;;;;;;5.30;0.80;;;7.90;99.90;;;;;;5011765;28;20449;-73
2024/01/25 00:13:19;;;;;;;6.15;1.10;;;7.80;99.90;;;;;;5011398;28;20045;-73
2024/01/25 00:15:44;;;;;;;3.08;0.73;;;7.80;99.90;;;;;;5011049;28;20042;-73
2024/01/25 00:18:10;;;;;;;6.97;1.48;;;7.80;99.90;;;;;;5011748;28;20104;-73
2024/01/25 00:20:36;;;;;;;3.28;0.95;;;7.80;99.90;;;;;;5011335;28;20048;-73
2024/01/25 00:23:01;;;;;;;5.72;0.98;;;7.80;99.90;;;;;;4994950;28;20048;-73
2024/01/25 00:25:27;;;;;;;9.52;1.15;;;7.80;99.90;;;;;;5011514;28;20128;-73
2024/01/25 00:27:53;;;;;;;3.92;0.80;;;7.80;99.90;;;;;;5010963;28;20041;-73
2024/01/25 00:30:18;;;;;;;5.97;1.02;;;7.70;99.90;;;;;;5010951;28;20045;-73
2024/01/25 00:32:44;;;;;;;6.75;1.75;;;7.70;99.90;;;;;;5011146;28;20050;-73
2024/01/25 00:35:13;;;;;;;4.53;0.70;;;7.70;99.90;;;;;;5011166;28;20077;-73
2024/01/25 00:37:39;;;;;;;7.70;1.05;;;7.70;99.90;;;;;;5011402;28;20435;-73
2024/01/25 00:40:06;;;;;;;6.25;0.95;;;7.70;99.90;;;;;;5010808;28;20049;-73
2024/01/25 00:42:37;;;;;;;4.43;0.90;;;7.60;99.90;;;;;;5011217;28;20045;-73
2024/01/25 00:45:03;;;;;;;2.75;0.65;;;7.60;99.90;;;;;;4994480;28;20487;-73
2024/01/25 00:47:29;;;;;;;6.70;1.42;;;7.60;99.90;;;;;;4994378;28;20038;-73
2024/01/25 00:49:55;;;;;;;3.63;0.85;;;7.60;99.90;;;;;;5010690;28;20065;-73
2024/01/25 00:52:20;;;;;;;2.53;0.85;;;7.60;99.90;;;;;;5011055;28;20096;-73
2024/01/25 00:54:46;;;;;;;3.35;0.75;;;7.50;99.90;;;;;;5010717;28;20038;-73
2024/01/25 00:57:12;;;;;;;1.77;0.70;;;7.50;99.90;;;;;;5010742;28;20034;-73
2024/01/25 00:59:38;;;;;;;6.85;0.93;;;7.50;99.90;;;;;;5026948;28;20042;-73
2024/01/25 01:02:07;;;;;;;2.10;0.47;;;7.50;99.90;;;;;;4994385;28;20030;-74
2024/01/25 01:04:33;;;;;;;5.82;0.90;;;7.50;99.90;;;;;;5010890;28;20456;-73
2024/01/25 01:06:59;;;;;;;4.80;0.70;;;7.40;99.90;;;;;;5010685;28;20080;-73
2024/01/25 01:09:24;;;;;;;3.50;1.45;;;7.40;99.90;;;;;;5011953;28;20038;-73
2024/01/25 01:11:52;;;;;;;5.22;0.63;;;7.40;99.90;;;;;;5010373;28;20045;-73
2024/01/25 01:14:17;;;;;;;5.82;1.08;;;7.40;99.90;;;;;;5010091;28;20057;-73
2024/01/25 01:16:43;;;;;;;3.80;1.05;;;7.30;99.90;;;;;;5026035;28;20418;-73
2024/01/25 01:19:09;;;;;;;1.65;0.52;;;7.30;99.90;;;;;;5010345;28;20041;-73
2024/01/25 01:21:35;;;;;;;9.50;1.00;;;7.30;99.90;;;;;;4994157;28;20125;-73
2024/01/25 01:24:01;;;;;;;4.18;0.82;;;7.20;99.90;;;;;;5026651;28;20042;-73
2024/01/25 01:26:26;;;;;;;2.33;0.98;;;7.20;99.90;;;;;;4993663;28;20044;-73
2024/01/25 01:28:52;;;;;;;8.15;0.90;;;7.20;99.90;;;;;;5009784;28;20052;-73
2024/01/25 01:31:18;;;;;;;4.45;0.73;;;7.10;99.90;;;;;;5010179;28;20042;-73
2024/01/25 01:33:43;;;;;;;7.38;1.20;;;7.10;99.90;;;;;;5009998;28;20042;-73
2024/01/25 01:36:09;;;;;;;4.07;1.20;;;7.10;99.90;;;;;;5010558;28;20033;-73
2024/01/25 01:38:34;;;;;;;7.95;2.03;;;7.10;99.90;;;;;;5010163;28;20073;-73
2024/01/25 01:41:00;;;;;;;3.30;0.68;;;7.00;99.90;;;;;;5010015;28;20488;-73
2024/01/25 01:43:26;;;;;;;4.95;1.65;;;7.00;99.90;;;;;;5009981;28;20038;-73
2024/01/25 01:45:53;;;;;;;2.53;0.80;;;7.00;99.90;;;;;;5009769;28;20049;-73
2024/01/25 01:48:18;;;;;;;5.80;1.30;;;7.00;99.90;;;;;;5009922;28;20535;-73
2024/01/25 01:50:45;;;;;;;2.67;1.15;;;6.90;99.90;;;;;;5010098;28;20136;-73
2024/01/25 01:53:11;;;;;;;2.53;1.23;;;6.90;99.90;;;;;;5009940;28;20549;-73
2024/01/25 01:55:37;;;;;;;2.53;0.85;;;6.90;99.90;;;;;;5009636;28;20042;-73
2024/01/25 01:58:03;;;;;;;9.10;1.20;;;6.90;99.90;;;;;;4993199;28;20045;-73
2024/01/25 02:00:30;;;;;;;4.93;1.33;;;6.80;99.90;;;;;;5009901;28;20038;-73
2024/01/25 02:02:57;;;;;;;7.45;1.40;;;6.80;99.90;;;;;;5009674;28;20053;-73
2024/01/25 02:05:23;;;;;;;4.93;1.13;;;6.80;99.90;;;;;;5009637;28;20092;-73
2024/01/25 02:07:49;;;;;;;2.08;0.73;;;6.80;99.90;;;;;;5009820;28;20048;-73
2024/01/25 02:10:15;;;;;;;4.00;0.85;;;6.80;99.90;;;;;;5009689;28;20049;-73
2024/01/25 02:12:41;;;;;;;3.00;0.88;;;6.80;99.90;;;;;;5009651;28;20049;-73
2024/01/25 02:15:07;;;;;;;5.63;0.82;;;6.70;99.90;;;;;;5009684;28;20041;-73
2024/01/25 02:17:33;;;;;;;1.23;0.98;;;6.70;99.90;;;;;;5009495;28;20073;-73
2024/01/25 02:20:00;;;;;;;4.55;1.42;;;6.70;99.90;;;;;;5009503;28;20439;-73
2024/01/25 02:22:26;;;;;;;3.00;0.75;;;6.70;99.90;;;;;;4993150;28;20046;-73
2024/01/25 02:24:51;;;;;;;7.03;0.70;;;6.70;99.90;;;;;;5009500;28;20250;-73
2024/01/25 02:27:17;;;;;;;8.43;1.50;;;6.70;99.90;;;;;;5009568;28;20464;-73
2024/01/25 02:29:43;;;;;;;2.38;0.98;;;6.70;99.90;;;;;;5013493;28;20510;-73
2024/01/25 02:32:08;;;;;;;6.95;1.33;;;6.70;99.90;;;;;;5013478;28;20037;-73
2024/01/25 02:34:34;;;;;;;10.60;1.70;;;6.70;99.90;;;;;;5029826;28;20034;-73
2024/01/25 02:36:59;;;;;;;5.97;0.98;;;6.70;99.90;;;;;;5014555;28;20447;-73
2024/01/25 02:39:25;;;;;;;6.55;1.17;;;6.70;99.90;;;;;;5012947;28;20125;-73
2024/01/25 02:41:51;;;;;;;4.47;1.00;;;6.60;99.90;;;;;;5030046;28;20129;-73
2024/01/25 02:44:16;;;;;;;7.80;1.13;;;6.60;99.90;;;;;;5013717;28;20046;-73
2024/01/25 02:46:44;;;;;;;6.57;0.77;;;6.60;99.90;;;;;;5013180;28;20496;-73
2024/01/25 02:49:10;;;;;;;6.35;1.58;;;6.60;99.90;;;;;;5013522;28;20046;-73
2024/01/25 02:51:36;;;;;;;5.50;1.05;;;6.60;99.90;;;;;;5013301;28;20103;-73
2024/01/25 02:54:02;;;;;;;2.75;0.70;;;6.60;99.90;;;;;;5013032;28;20045;-73
2024/01/25 02:56:33;;;;;;;3.45;0.90;;;6.60;99.90;;;;;;5012756;28;20322;-73
2024/01/25 02:58:59;;;;;;;4.15;1.10;;;6.60;99.90;;;;;;5013005;28;20057;-73
2024/01/25 03:01:25;;;;;;;6.88;1.10;;;6.50;99.90;;;;;;5013130;28;20482;-73
2024/01/25 03:03:50;;;;;;;4.85;1.10;;;6.50;99.90;;;;;;5012650;28;20065;-73
2024/01/25 03:06:16;;;;;;;3.67;0.50;;;6.50;99.90;;;;;;5012719;28;20042;-73
2024/01/25 03:08:41;;;;;;;11.77;1.05;;;6.50;99.90;;;;;;5012623;28;20549;-73
2024/01/25 03:11:07;;;;;;;3.88;1.25;;;6.40;99.90;;;;;;5012497;28;20047;-73
2024/01/25 03:13:34;;;;;;;5.15;1.27;;;6.50;99.90;;;;;;5012669;28;20046;-73
2024/01/25 03:15:59;;;;;;;1.48;0.88;;;6.50;99.90;;;;;;5012438;28;20176;-73
2024/01/25 03:18:25;;;;;;;4.32;0.98;;;6.50;99.90;;;;;;4996227;28;20116;-73
2024/01/25 03:20:51;;;;;;;2.90;0.95;;;6.40;99.90;;;;;;5012314;28;20046;-73
2024/01/25 03:23:17;;;;;;;5.07;0.88;;;6.40;99.90;;;;;;5012221;28;20045;-73
2024/01/25 03:25:42;;;;;;;3.35;1.10;;;6.40;99.90;;;;;;5012493;28;20044;-73
2024/01/25 03:28:09;;;;;;;4.57;0.88;;;6.40;99.90;;;;;;5012545;28;20049;-74
2024/01/25 03:30:35;;;;;;;3.05;0.80;;;6.40;99.90;;;;;;5012598;28;20415;-73
2024/01/25 03:33:00;;;;;;;4.95;1.00;;;6.40;99.90;;;;;;4995959;28;20080;-73
2024/01/25 03:35:26;;;;;;;4.32;0.93;;;6.30;99.90;;;;;;5012381;28;20073;-73
2024/01/25 03:37:52;;;;;;;3.67;1.05;;;6.40;99.90;;;;;;5011879;28;20140;-73
2024/01/25 03:40:17;;;;;;;2.08;0.70;;;6.30;99.90;;;;;;5011201;28;20041;-74
2024/01/25 03:42:43;;;;;;;8.70;1.55;;;6.30;99.90;;;;;;5012002;28;20109;-73
2024/01/25 03:45:09;;;;;;;1.48;0.50;;;6.30;99.90;;;;;;4996213;28;20403;-73
2024/01/25 03:47:34;;;;;;;3.65;0.75;;;6.30;99.90;;;;;;5012018;28;20510;-74
2024/01/25 03:50:00;;;;;;;1.85;0.85;;;6.30;99.90;;;;;;5011809;28;20069;-73
2024/01/25 03:52:29;;;;;;;3.08;0.90;;;6.30;99.90;;;;;;5028122;28;20510;-73
2024/01/25 03:54:55;;;;;;;3.13;2.05;;;6.30;99.90;;;;;;5011842;28;20038;-73
2024/01/25 03:57:21;;;;;;;2.38;1.20;;;6.30;99.90;;;;;;5011774;28;20046;-73
2024/01/25 03:59:46;;;;;;;4.47;0.77;;;6.20;99.90;;;;;;5011742;28;20034;-74
2024/01/25 04:02:12;;;;;;;5.38;1.27;;;6.20;99.90;;;;;;5011879;28;20041;-73
2024/01/25 04:04:38;;;;;;;3.67;0.90;;;6.20;99.90;;;;;;5011816;28;20038;-74
2024/01/25 04:07:04;;;;;;;2.50;0.40;;;6.20;99.90;;;;;;5011566;28;20049;-73
2024/01/25 04:09:29;;;;;;;2.05;0.80;;;6.20;99.90;;;;;;5011899;28;20046;-73
2024/01/25 04:11:56;;;;;;;1.70;0.73;;;6.20;99.90;;;;;;5028070;28;20038;-73
2024/01/25 04:14:21;;;;;;;3.08;1.65;;;6.20;99.90;;;;;;5011411;28;20082;-74
2024/01/25 04:16:47;;;;;;;2.72;1.00;;;6.20;99.90;;;;;;5011388;28;20074;-73
2024/01/25 04:19:13;;;;;;;7.75;1.55;;;6.10;99.90;;;;;;5011333;28;20034;-73
2024/01/25 04:21:38;;;;;;;2.97;0.82;;;6.20;99.90;;;;;;5011236;28;20038;-74
2024/01/25 04:24:04;;;;;;;4.88;0.73;;;6.10;99.90;;;;;;5011182;28;20038;-73
2024/01/25 04:26:30;;;;;;;2.10;0.93;;;6.10;99.90;;;;;;5011131;28;20039;-73
2024/01/25 04:28:55;;;;;;;6.90;1.13;;;6.10;99.90;;;;;;5011075;28;20037;-73
2024/01/25 04:31:21;;;;;;;2.33;1.33;;;6.10;99.90;;;;;;5027873;28;20045;-73
2024/01/25 04:33:47;;;;;;;4.00;1.10;;;6.10;99.90;;;;;;5011123;28;20503;-73
2024/01/25 04:36:13;;;;;;;7.03;1.02;;;6.10;99.90;;;;;;5010710;28;20161;-73
2024/01/25 04:38:38;;;;;;;6.78;1.45;;;6.10;99.90;;;;;;5011506;28;20037;-73
2024/01/25 04:41:05;;;;;;;3.42;1.13;;;6.10;99.90;;;;;;5010738;28;20527;-73
2024/01/25 04:43:35;;;;;;;3.47;1.00;;;6.00;99.90;;;;;;5011020;28;20053;-73
2024/01/25 04:46:01;;;;;;;6.18;0.90;;;6.10;99.90;;;;;;5010867;28;20041;-73
2024/01/25 04:48:27;;;;;;;11.52;1.70;;;6.00;99.90;;;;;;5011200;28;20415;-73
2024/01/25 04:50:52;;;;;;;1.60;0.98;;;6.10;99.90;;;;;;5010814;28;20407;-73
2024/01/25 04:53:18;;;;;;;1.90;0.70;;;6.10;99.90;;;;;;5011111;28;20122;-73
2024/01/25 04:55:43;;;;;;;6.13;0.85;;;6.10;99.90;;;;;;5010679;28;20050;-73
2024/01/25 04:58:09;;;;;;;3.20;1.02;;;6.00;99.90;;;;;;5010756;28;20038;-73
2024/01/25 05:00:36;;;;;;;5.75;0.75;;;6.00;99.90;;;;;;5010665;28;20125;-73
2024/01/25 05:03:02;;;;;;;6.15;0.93;;;6.00;99.90;;;;;;5010861;28;20046;-73
2024/01/25 05:05:28;;;;;;;4.00;0.90;;;6.00;99.90;;;;;;5010413;28;20510;-74
2024/01/25 05:07:53;;;;;;;6.25;1.20;;;6.00;99.90;;;;;;5010569;28;20042;-73
2024/01/25 05:10:19;;;;;;;3.35;0.95;;;5.90;99.90;;;;;;5010513;28;20107;-73
2024/01/25 05:12:44;;;;;;;4.93;0.98;;;5.90;99.90;;;;;;5010588;28;20411;-73
2024/01/25 05:15:10;;;;;;;9.07;1.10;;;5.90;99.90;;;;;;5010455;28;20041;-73
2024/01/25 05:17:36;;;;;;;1.88;1.17;;;5.90;99.90;;;;;;5010393;28;20034;-74
2024/01/25 05:20:02;;;;;;;2.85;0.88;;;5.90;99.90;;;;;;5010136;28;20045;-73
2024/01/25 05:22:28;;;;;;;4.28;0.73;;;5.90;99.90;;;;;;5010209;28;20038;-73
2024/01/25 05:24:54;;;;;;;3.65;0.77;;;5.90;99.90;;;;;;5026621;28;20044;-74
2024/01/25 05:27:19;;;;;;;3.10;0.57;;;5.90;99.90;;;;;;5010224;28;20044;-73
2024/01/25 05:29:45;;;;;;;3.83;0.77;;;5.90;99.90;;;;;;5010220;28;20626;-73
2024/01/25 05:32:10;;;;;;;1.38;0.63;;;5.80;99.90;;;;;;5010145;28;20045;-73
2024/01/25 05:34:36;;;;;;;4.38;0.65;;;5.80;99.90;;;;;;5009978;28;20045;-73
2024/01/25 05:37:02;;;;;;;4.05;0.93;;;5.90;99.90;;;;;;5009990;28;20482;-73
2024/01/25 05:39:28;;;;;;;3.92;1.67;;;5.80;99.90;;;;;;5010222;28;20060;-73
2024/01/25 05:41:54;;;;;;;2.60;0.70;;;5.80;99.90;;;;;;5009751;28;20045;-73
2024/01/25 05:44:19;;;;;;;7.15;1.38;;;5.80;99.90;;;;;;4993848;28;20045;-73
2024/01/25 05:46:45;;;;;;;3.58;1.40;;;5.80;99.90;;;;;;5009892;28;20050;-73
2024/01/25 05:49:10;;;;;;;7.45;1.73;;;5.80;99.90;;;;;;5009889;28;20044;-73
2024/01/25 05:51:36;;;;;;;9.85;0.98;;;5.80;99.90;;;;;;5009939;28;20514;-73
2024/01/25 05:54:02;;;;;;;5.63;0.98;;;5.80;99.90;;;;;;5009975;28;20339;-73
2024/01/25 05:56:27;;;;;;;6.57;1.98;;;5.80;99.90;;;;;;5009626;28;20498;-73
2024/01/25 05:58:53;;;;;;;2.97;0.93;;;5.70;99.90;;;;;;5026117;28;20072;-73
2024/01/25 06:01:19;;;;;;;4.10;1.00;;;5.70;99.90;;;;;;5009598;28;20037;-73
2024/01/25 06:03:44;;;;;;;4.95;1.02;;;5.70;99.90;;;;;;5008898;28;20196;-73
2024/01/25 06:06:10;;;;;;;1.50;0.52;;;5.70;99.90;;;;;;5010100;28;20129;-73
2024/01/25 06:08:35;;;;;;;5.35;1.58;;;5.70;99.90;;;;;;5009606;28;20068;-73
2024/01/25 06:11:01;;;;;;;5.28;1.58;;;5.60;99.90;;;;;;5009486;28;20514;-73
2024/01/25 06:13:27;;;;;;;5.93;1.00;;;5.60;99.90;;;;;;5009568;28;20045;-73
2024/01/25 06:15:52;;;;;;;4.22;1.02;;;5.60;99.90;;;;;;5009410;28;20515;-73
2024/01/25 06:18:18;;;;;;;2.58;0.90;;;5.60;99.90;;;;;;5009254;28;20065;-73
2024/01/25 06:20:44;;;;;;;2.47;0.70;;;5.50;99.90;;;;;;5009610;28;20087;-73
2024/01/25 06:23:09;;;;;;;2.78;1.15;;;5.50;99.90;;;;;;5009358;28;20462;-73
2024/01/25 06:25:36;;;;;;;5.15;0.77;;;5.50;99.90;;;;;;5009714;28;20044;-73
2024/01/25 06:28:02;;;;;;;2.00;0.57;;;5.50;99.90;;;;;;5009374;28;20054;-73
2024/01/25 06:30:29;;;;;;;0.90;0.55;;;5.50;99.90;;;;;;5009426;28;20053;-73
2024/01/25 06:32:55;;;;;;;9.45;1.00;;;5.50;99.90;;;;;;5009324;28;20045;-73
2024/01/25 06:35:20;;;;;;;1.65;0.45;;;5.50;99.90;;;;;;5009291;28;20073;-73
2024/01/25 06:37:46;;;;;;;7.03;1.20;;;5.50;99.90;;;;;;5009617;28;20037;-73
2024/01/25 06:40:11;;;;;;;6.53;0.77;;;5.40;99.90;;;;;;4993067;28;20045;-73
2024/01/25 06:42:37;;;;;;;6.78;1.00;;;5.40;99.90;;;;;;5009381;28;20100;-73
2024/01/25 06:45:03;;;;;;;5.07;1.42;;;5.50;99.90;;;;;;4992936;28;20048;-73
2024/01/25 06:47:29;;;;;;;4.10;0.75;;;5.40;99.90;;;;;;5008914;28;20384;-73
2024/01/25 06:49:54;;;;;;;5.43;0.82;;;5.40;99.90;;;;;;5009588;28;20042;-73
2024/01/25 06:52:20;;;;;;;2.95;1.00;;;5.30;99.90;;;;;;5009602;28;20404;-73
2024/01/25 06:54:46;;;;;;;2.45;1.10;;;5.30;99.90;;;;;;4992780;28;20038;-73
2024/01/25 06:57:13;;;;;;;1.45;0.70;;;5.30;99.90;;;;;;5009216;28;20128;-73
2024/01/25 06:59:39;;;;;;;2.58;0.70;;;5.40;99.90;;;;;;5009589;28;20049;-73
2024/01/25 07:02:05;;;;;;;6.20;1.02;;;5.40;99.90;;;;;;5008757;28;20042;-73
2024/01/25 07:04:32;;;;;;;7.32;1.05;;;5.30;99.90;;;;;;5009319;28;20080;-73
2024/01/25 07:06:59;;;;;;;1.27;0.70;;;5.30;99.90;;;;;;5009087;28;20050;-73
2024/01/25 07:09:25;;;;;;;2.05;0.93;;;5.40;99.90;;;;;;5009067;28;20042;-73
2024/01/25 07:11:51;;;;;;;4.03;0.68;;;5.30;99.90;;;;;;4993047;28;20125;-73
2024/01/25 07:14:17;;;;;;;5.07;0.95;;;5.30;99.90;;;;;;5008808;28;20124;-73
2024/01/25 07:16:42;;;;;;;5.15;0.82;;;5.30;99.90;;;;;;5012258;28;20411;-73
2024/01/25 07:19:08;;;;;;;4.43;1.00;;;5.40;99.90;;;;;;5012654;28;20397;-73
2024/01/25 07:21:34;;;;;;;5.13;1.02;;;5.40;99.90;;;;;;5012456;28;20124;-73
2024/01/25 07:24:06;;;;;;;7.03;1.00;;;5.40;99.90;;;;;;5012400;28;20037;-73
2024/01/25 07:26:32;;;;;;;4.75;0.77;;;5.40;99.90;;;;;;4995870;28;20044;-73
2024/01/25 07:29:00;;;;;;;2.58;0.93;;;5.30;99.90;;;;;;5012319;28;20128;-73
2024/01/25 07:31:27;;;;;;;6.70;1.00;;;5.30;99.90;;;;;;5028908;28;20072;-73
2024/01/25 07:33:56;;;;;;;1.83;0.52;;;5.30;99.90;;;;;;5012200;28;20156;-73
2024/01/25 07:36:22;;;;;;;2.17;1.08;;;5.30;99.90;;;;;;5012117;28;20061;-73
2024/01/25 07:38:48;;;;;;;1.90;0.45;;;5.30;99.90;;;;;;5012219;28;20034;-73
2024/01/25 07:41:17;;;;;;;7.20;1.60;;;5.30;99.90;;;;;;5012081;28;20511;-73
2024/01/25 07:43:42;;;;;;;7.38;0.55;;;5.30;99.90;;;;;;5012148;28;20091;-73
2024/01/25 07:46:08;;;;;;;0.85;0.30;;;5.30;99.90;;;;;;5012298;28;20129;-73
2024/01/25 07:48:34;;;;;;;5.03;1.20;;;5.30;99.90;;;;;;5011906;28;20123;-73
2024/01/25 07:50:59;;;;;;;5.90;0.90;;;5.30;99.90;;;;;;5011914;28;20085;-73
2024/01/25 07:53:25;;;;;;;6.18;1.17;;;5.20;99.90;;;;;;5011764;28;20037;-73
2024/01/25 07:55:51;;;;;;;2.38;1.33;;;5.20;99.90;;;;;;5012984;28;20048;-73
2024/01/25 07:58:16;;;;;;;2.35;1.00;;;5.30;99.90;;;;;;4995798;28;20144;-73
2024/01/25 08:00:42;;;;;;;1.98;0.60;;;5.30;99.90;;;;;;5012569;28;20535;-73
2024/01/25 08:03:08;;;;;;;5.57;1.15;;;5.30;99.90;;;;;;4995519;28;20096;-73
2024/01/25 08:05:34;;;;;;;3.65;1.40;;;5.30;99.90;;;;;;5011519;28;20396;-73
2024/01/25 08:08:00;;;;;;;7.57;1.42;;;5.30;99.90;;;;;;5011680;28;20052;-73
2024/01/25 08:10:25;;;;;;;1.52;0.50;;;5.30;99.90;;;;;;5011781;28;20038;-73
2024/01/25 08:12:51;;;;;;;8.20;1.77;;;5.30;99.90;;;;;;5027835;28;20042;-73
2024/01/25 08:15:17;;;;;;;4.85;1.10;;;5.30;99.90;;;;;;5011291;28;20076;-73
2024/01/25 08:17:43;;;;;;;4.40;0.60;;;5.40;99.90;;;;;;5028368;28;20468;-73
2024/01/25 08:20:10;;;;;;;5.28;1.45;;;5.40;99.90;;;;;;5011531;28;20077;-73
2024/01/25 08:22:36;;;;;;;5.10;0.95;;;5.40;99.90;;;;;;4995174;28;20073;-73
2024/01/25 08:25:02;;;;;;;6.85;1.17;;;5.50;99.90;;;;;;5011114;28;20092;-73
2024/01/25 08:27:27;;;;;;;3.08;0.82;;;5.50;99.90;;;;;;5010517;28;20092;-73
2024/01/25 08:29:53;;;;;;;5.57;0.65;;;5.50;99.90;;;;;;5010945;28;20037;-73
2024/01/25 08:32:19;;;;;;;3.38;0.70;;;5.50;99.90;;;;;;5011275;28;20050;-73
2024/01/25 08:34:44;;;;;;;3.58;0.93;;;5.50;99.90;;;;;;5011247;28;20072;-73
2024/01/25 08:37:10;;;;;;;7.72;1.48;;;5.60;99.90;;;;;;5011176;28;20488;-73
2024/01/25 08:39:36;;;;;;;2.55;1.13;;;5.60;99.90;;;;;;4995010;28;20057;-73
2024/01/25 08:42:03;;;;;;;3.80;0.80;;;5.60;99.90;;;;;;5010595;28;20124;-73
2024/01/25 08:44:29;;;;;;;6.00;1.58;;;5.60;99.90;;;;;;5027369;28;20053;-73
2024/01/25 08:46:54;;;;;;;7.55;1.50;;;5.70;99.90;;;;;;5011072;28;20097;-73
2024/01/25 08:49:20;;;;;;;3.88;0.70;;;5.70;99.90;;;;;;5011108;28;20057;-73
2024/01/25 08:51:45;;;;;;;8.50;0.88;;;5.70;99.90;;;;;;5010842;28;20038;-73
2024/01/25 08:54:11;;;;;;;5.00;1.23;;;5.70;99.90;;;;;;5010823;28;20081;-73
2024/01/25 08:56:37;;;;;;;7.00;1.27;;;5.80;99.90;;;;;;5010450;28;20108;-73
2024/01/25 08:59:02;;;;;;;3.08;0.95;;;5.80;99.90;;;;;;5010937;28;20037;-73
2024/01/25 09:01:28;;;;;;;3.33;0.93;;;5.80;99.90;;;;;;5010785;28;20451;-73
2024/01/25 09:03:54;;;;;;;3.88;0.68;;;5.80;99.90;;;;;;5011968;28;20045;-73
2024/01/25 09:06:19;;;;;;;4.90;0.70;;;5.80;99.90;;;;;;5010532;28;20041;-73
2024/01/25 09:08:45;;;;;;;5.13;0.85;;;5.80;99.90;;;;;;4994517;28;20049;-73
2024/01/25 09:11:11;;;;;;;4.00;0.90;;;5.80;99.90;;;;;;5010395;28;20050;-73
2024/01/25 09:13:36;;;;;;;4.22;1.17;;;5.90;99.90;;;;;;5010404;28;20430;-73
2024/01/25 09:16:02;;;;;;;1.77;1.20;;;5.90;99.90;;;;;;5010365;28;20777;-73
2024/01/25 09:18:27;;;;;;;4.82;0.82;;;5.90;99.90;;;;;;4994331;28;20042;-73
2024/01/25 09:20:53;;;;;;;2.67;0.85;;;5.90;99.90;;;;;;5010339;28;20044;-73
2024/01/25 09:23:20;;;;;;;5.20;1.15;;;5.90;99.90;;;;;;5026685;28;20108;-73
2024/01/25 09:25:45;;;;;;;6.20;1.23;;;5.90;99.90;;;;;;5009902;28;20056;-73
2024/01/25 09:28:14;;;;;;;4.57;1.17;;;5.90;99.90;;;;;;5010087;28;20041;-73
2024/01/25 09:30:40;;;;;;;4.03;1.30;;;5.90;99.90;;;;;;4994305;28;20104;-73
2024/01/25 09:33:09;;;;;;;6.68;0.98;;;5.90;99.90;;;;;;5010264;28;20050;-73
2024/01/25 09:35:35;;;;;;;5.85;1.40;;;5.90;99.90;;;;;;5010079;28;20041;-73
2024/01/25 09:38:00;;;;;;;4.10;1.52;;;5.90;99.90;;;;;;4993017;28;20041;-73
2024/01/25 09:40:26;;;;;;;9.23;1.38;;;6.00;99.90;;;;;;5009788;28;20400;-73
2024/01/25 09:42:52;;;;;;;2.00;0.82;;;5.90;99.90;;;;;;5010003;28;20087;-73
2024/01/25 09:45:18;;;;;;;6.28;0.80;;;6.00;99.90;;;;;;5009734;28;20116;-73
2024/01/25 09:47:48;;;;;;;5.35;1.00;;;6.00;99.90;;;;;;5009905;28;20526;-73
2024/01/25 09:50:14;;;;;;;6.57;0.98;;;6.00;99.90;;;;;;5010061;28;20435;-73
2024/01/25 09:52:42;;;;;;;5.75;1.52;;;6.00;99.90;;;;;;4993816;28;20384;-73
2024/01/25 09:55:13;;;;;;;3.70;0.75;;;6.00;99.90;;;;;;5009600;28;20050;-73
2024/01/25 09:57:45;;;;;;;7.18;1.25;;;6.00;99.90;;;;;;5010128;28;20046;-73
2024/01/25 10:00:11;;;;;;;5.63;0.85;;;6.00;99.90;;;;;;5009768;28;20512;-73
2024/01/25 10:02:38;;;;;;;3.92;1.00;;;6.00;99.90;;;;;;5009997;28;20034;-73
2024/01/25 10:05:04;;;;;;;2.67;1.77;;;6.00;99.90;;;;;;5009728;28;20436;-73
2024/01/25 10:07:43;;;;;;;3.78;1.02;;;6.10;99.90;;;;;;5009459;28;20038;-73
2024/01/25 10:10:10;;;;;;;2.00;1.30;;;6.10;99.90;;;;;;5009721;28;20045;-73
2024/01/25 10:12:38;;;;;;;4.20;1.17;;;6.10;99.90;;;;;;4993432;28;20542;-73
2024/01/25 10:15:04;;;;;;;5.22;1.70;;;6.10;99.90;;;;;;5009491;28;20084;-73
2024/01/25 10:17:30;;;;;;;7.30;2.30;;;6.10;99.90;;;;;;5009588;28;20134;-73
2024/01/25 10:19:56;;;;;;;4.30;2.05;;;6.10;99.90;;;;;;5009742;28;20041;-73
2024/01/25 10:22:22;;;;;;;4.18;0.65;;;6.10;99.90;;;;;;5009445;28;20388;-73
2024/01/25 10:24:53;;;;;;;9.15;1.92;;;6.10;99.90;;;;;;5009797;28;20107;-73
2024/01/25 10:27:19;;;;;;;10.43;1.33;;;6.10;99.90;;;;;;5009216;28;20038;-73
2024/01/25 10:29:45;;;;;;;5.68;1.13;;;6.10;99.90;;;;;;5009695;28;20038;-73
2024/01/25 10:32:12;;;;;;;2.47;0.90;;;6.10;99.90;;;;;;5009722;28;20108;-73
2024/01/25 10:34:38;;;;;;;6.80;1.60;;;6.10;99.90;;;;;;5009383;28;20630;-73
2024/01/25 10:37:06;;;;;;;4.50;1.20;;;6.20;99.90;;;;;;4992846;28;20049;-73
2024/01/25 10:39:33;;;;;;;3.38;1.45;;;6.20;99.90;;;;;;5009365;28;20039;-73
2024/01/25 10:41:59;;;;;;;6.78;1.70;;;6.20;99.90;;;;;;5009619;28;20060;-73
2024/01/25 10:44:25;;;;;;;3.15;1.17;;;6.30;99.90;;;;;;5009352;28;20073;-73
2024/01/25 10:46:51;;;;;;;2.47;0.85;;;6.30;99.90;;;;;;5009269;28;20038;-73
2024/01/25 10:49:18;;;;;;;4.05;1.30;;;6.40;99.90;;;;;;5010686;28;20049;-73
2024/01/25 10:51:45;;;;;;;7.88;1.05;;;6.40;99.90;;;;;;5013113;28;20135;-73
2024/01/25 10:54:14;;;;;;;11.23;2.25;;;6.50;99.90;;;;;;5013213;28;20042;-73
2024/01/25 10:56:42;;;;;;;4.53;1.20;;;6.60;99.90;;;;;;5013074;28;20053;-73
2024/01/25 10:59:08;;;;;;;4.15;1.55;;;6.60;99.90;;;;;;5013267;28;20037;-73
2024/01/25 11:01:35;;;;;;;2.88;1.33;;;6.70;99.90;;;;;;5012785;28;20037;-73
2024/01/25 11:04:00;;;;;;;7.38;1.88;;;6.80;99.90;;;;;;5012841;28;20491;-73
2024/01/25 11:06:27;;;;;;;1.90;0.80;;;6.80;99.90;;;;;;5012970;28;20049;-73
2024/01/25 11:09:05;;;;;;;5.32;1.52;;;6.90;99.90;;;;;;5013077;28;20081;-73
2024/01/25 11:11:32;;;;;;;3.28;1.17;;;6.90;99.90;;;;;;5012995;28;20041;-73
2024/01/25 11:13:59;;;;;;;4.57;1.20;;;7.00;99.90;;;;;;5012984;28;20092;-73
2024/01/25 11:16:30;;;;;;;6.32;1.42;;;7.10;99.90;;;;;;5012205;28;20128;-73
2024/01/25 11:19:04;;;;;;;12.35;1.33;;;7.10;99.90;;;;;;5012664;28;20575;-73
2024/01/25 11:21:47;;;;;;;7.80;1.73;;;7.10;99.90;;;;;;4996715;28;20042;-73
2024/01/25 11:24:20;;;;;;;7.32;1.90;;;7.20;99.90;;;;;;4996268;28;20045;-73
2024/01/25 11:26:46;;;;;;;2.38;1.27;;;7.20;99.90;;;;;;4995640;28;20052;-73
2024/01/25 11:29:16;;;;;;;4.18;2.33;;;7.30;99.90;;;;;;5012653;28;20130;-73
2024/01/25 11:31:46;;;;;;;4.50;1.60;;;7.30;99.90;;;;;;5012912;28;20420;-73
2024/01/25 11:34:13;;;;;;;4.75;1.55;;;7.40;99.90;;;;;;5012444;28;20045;-73
2024/01/25 11:36:39;;;;;;;6.97;1.58;;;7.40;99.90;;;;;;5012506;28;20451;-73
2024/01/25 11:39:06;;;;;;;4.80;1.20;;;7.40;99.90;;;;;;5012152;28;20034;-73
2024/01/25 11:41:32;;;;;;;13.25;1.73;;;7.50;99.90;;;;;;5012253;28;20041;-73
2024/01/25 11:43:57;;;;;;;8.43;2.42;;;7.50;99.90;;;;;;5012315;28;20045;-73
2024/01/25 11:46:24;;;;;;;8.20;1.38;;;7.50;99.90;;;;;;4995568;28;20041;-73
2024/01/25 11:48:50;;;;;;;11.70;1.55;;;7.50;99.90;;;;;;5012177;28;20042;-73
2024/01/25 11:51:16;;;;;;;7.50;1.83;;;7.50;99.90;;;;;;5012237;28;20065;-73
2024/01/25 11:53:42;;;;;;;5.82;1.33;;;7.60;99.90;;;;;;5012032;28;20562;-73
2024/01/25 11:56:10;;;;;;;3.85;1.48;;;7.60;99.90;;;;;;4995840;28;20057;-73
2024/01/25 11:58:40;;;;;;;9.82;1.75;;;7.60;99.90;;;;;;5011964;28;20052;-73
2024/01/25 12:01:07;;;;;;;8.60;2.20;;;7.60;99.90;;;;;;5011396;28;20037;-73
2024/01/25 12:03:37;;;;;;;6.47;1.48;;;7.60;99.90;;;;;;5011747;28;20124;-73
2024/01/25 12:06:04;;;;;;;7.25;1.73;;;7.50;99.90;;;;;;5011706;28;20054;-73
2024/01/25 12:08:33;;;;;;;6.15;1.85;;;7.60;99.90;;;;;;5011381;28;20057;-73
2024/01/25 12:11:09;;;;;;;8.45;1.33;;;7.60;99.90;;;;;;5011802;28;20046;-73
2024/01/25 12:13:36;;;;;;;4.47;1.52;;;7.60;99.90;;;;;;5011828;28;20041;-73
2024/01/25 12:16:03;;;;;;;9.35;1.55;;;7.50;99.90;;;;;;5011587;28;20077;-73
2024/01/25 12:18:30;;;;;;;4.20;1.55;;;7.60;99.90;;;;;;5011669;28;20536;-73
2024/01/25 12:21:01;;;;;;;5.78;1.73;;;7.60;99.90;;;;;;5011199;28;20088;-73
2024/01/25 12:23:35;;;;;;;6.10;1.88;;;7.60;99.90;;;;;;4995046;28;20045;-73
2024/01/25 12:26:05;;;;;;;3.47;0.90;;;7.60;99.90;;;;;;5011334;28;20038;-73
2024/01/25 12:28:32;;;;;;;3.85;1.27;;;7.60;99.90;;;;;;5010994;28;20042;-73
2024/01/25 12:30:59;;;;;;;2.92;0.90;;;7.60;99.90;;;;;;5011341;28;20121;-73
2024/01/25 12:33:25;;;;;;;11.88;1.88;;;7.70;99.90;;;;;;4994583;28;20049;-73
2024/01/25 12:35:51;;;;;;;7.88;1.60;;;7.70;99.90;;;;;;5011246;28;20041;-73
2024/01/25 12:38:16;;;;;;;2.47;1.10;;;7.70;99.90;;;;;;4994560;28;20400;-73
2024/01/25 12:40:44;;;;;;;6.03;1.92;;;7.70;99.90;;;;;;4994917;28;20042;-73
2024/01/25 12:43:10;;;;;;;7.93;1.30;;;7.80;99.90;;;;;;5011293;28;20527;-73
2024/01/25 12:45:36;;;;;;;6.10;1.35;;;7.90;99.90;;;;;;5011128;28;20175;-73
2024/01/25 12:48:02;;;;;;;14.00;1.60;;;7.90;99.90;;;;;;5011937;28;20124;-73
2024/01/25 12:50:28;;;;;;;6.05;1.42;;;7.90;99.90;;;;;;5010735;28;20500;-73
2024/01/25 12:52:54;;;;;;;4.45;1.48;;;7.90;99.90;;;;;;5011163;28;20075;-73